createdAt,value
2024-01-05T00:00:11.440Z,99545.00
2024-01-05T00:00:33.221Z,99542.69
2024-01-05T00:00:54.990Z,99547.56
2024-01-05T00:01:17.796Z,99545.34
2024-01-05T00:01:39.428Z,99543.81
2024-01-05T00:02:01.037Z,99537.19
2024-01-05T00:02:22.859Z,99528.94
2024-01-05T00:02:45.467Z,99533.53
2024-01-05T00:03:07.178Z,99543.19
2024-01-05T00:03:29.016Z,99542.28
2024-01-05T00:03:50.811Z,99538.53
2024-01-05T00:04:12.585Z,99539.75
2024-01-05T00:04:34.328Z,99538.50
2024-01-05T00:04:57.544Z,99533.81
2024-01-05T00:05:19.147Z,99511.56
2024-01-05T00:05:40.960Z,99540.59
2024-01-05T00:06:02.788Z,99533.50
2024-01-05T00:06:24.642Z,99537.59
2024-01-05T00:06:46.610Z,99520.09
2024-01-05T00:07:10.481Z,99534.13
2024-01-05T00:07:33.328Z,99543.31
2024-01-05T00:07:55.022Z,99532.56
2024-01-05T00:08:16.919Z,99527.69
2024-01-05T00:08:38.573Z,99528.56
2024-01-05T00:09:00.259Z,99532.44
2024-01-05T00:09:22.928Z,99541.91
2024-01-05T00:09:44.632Z,99532.72
2024-01-05T00:10:07.731Z,99527.56
2024-01-05T00:10:29.390Z,99529.06
2024-01-05T00:10:51.095Z,99536.00
2024-01-05T00:11:18.259Z,99536.00
2024-01-05T00:11:39.884Z,99525.00
2024-01-05T00:12:04.164Z,99532.72
2024-01-05T00:12:26.713Z,99536.59
2024-01-05T00:12:48.337Z,99531.97
2024-01-05T00:13:10.015Z,99526.19
2024-01-05T00:13:32.670Z,99525.53
2024-01-05T00:13:54.381Z,99527.34
2024-01-05T00:14:17.528Z,99526.16
2024-01-05T00:14:39.764Z,99518.91
2024-01-05T00:15:01.427Z,99531.81
2024-01-05T00:15:24.099Z,99525.97
2024-01-05T00:15:45.816Z,99526.69
2024-01-05T00:16:07.545Z,99526.84
2024-01-05T00:16:29.202Z,99529.91
2024-01-05T00:16:50.817Z,99519.13
2024-01-05T00:17:13.449Z,99519.41
2024-01-05T00:17:35.610Z,99505.28
2024-01-05T00:17:57.425Z,99519.47
2024-01-05T00:18:19.239Z,99523.38
2024-01-05T00:18:40.960Z,99503.25
2024-01-05T00:19:03.887Z,99521.72
2024-01-05T00:19:25.889Z,99526.09
2024-01-05T00:19:47.738Z,99520.16
2024-01-05T00:20:10.722Z,99524.72
2024-01-05T00:20:32.450Z,99516.06
2024-01-05T00:20:54.151Z,99517.78
2024-01-05T00:23:36.849Z,99509.63
2024-01-05T00:28:45.881Z,99502.41
2024-01-05T00:31:48.125Z,99500.72
2024-01-05T00:32:10.712Z,99488.28
2024-01-05T00:32:32.402Z,99493.09
2024-01-05T00:32:54.176Z,99493.56
2024-01-05T00:33:16.594Z,99480.34
2024-01-05T00:33:38.764Z,99489.50
2024-01-05T00:34:02.111Z,99475.69
2024-01-05T00:34:23.889Z,99494.41
2024-01-05T00:34:45.650Z,99488.78
2024-01-05T00:35:08.605Z,99478.59
2024-01-05T00:35:30.211Z,99474.34
2024-01-05T00:35:52.905Z,99481.88
2024-01-05T00:36:14.675Z,99494.72
2024-01-05T00:36:36.360Z,99498.00
2024-01-05T00:36:58.039Z,99486.63
2024-01-05T00:37:20.061Z,99487.69
2024-01-05T00:37:41.701Z,99488.97
2024-01-05T00:38:05.580Z,99472.94
2024-01-05T00:38:27.312Z,99486.81
2024-01-05T00:38:50.117Z,99489.19
2024-01-05T00:39:11.797Z,99487.94
2024-01-05T00:39:33.511Z,99482.16
2024-01-05T00:39:55.162Z,99482.50
2024-01-05T00:40:17.055Z,99488.19
2024-01-05T00:40:39.666Z,99489.03
2024-01-05T00:41:01.362Z,99469.47
2024-01-05T00:41:23.037Z,99489.88
2024-01-05T00:41:45.985Z,99484.59
2024-01-05T00:42:08.093Z,99484.91
2024-01-05T00:42:30.973Z,99486.97
2024-01-05T00:42:52.671Z,99490.72
2024-01-05T00:43:14.374Z,99491.38
2024-01-05T00:43:35.980Z,99486.06
2024-01-05T00:43:57.608Z,99487.94
2024-01-05T00:44:19.197Z,99488.88
2024-01-05T00:44:41.861Z,99481.78
2024-01-05T00:45:04.051Z,99486.38
2024-01-05T00:45:26.078Z,99483.09
2024-01-05T00:45:47.814Z,99482.06
2024-01-05T00:46:10.792Z,99486.78
2024-01-05T00:46:32.507Z,99482.00
2024-01-05T00:46:55.773Z,99478.97
2024-01-05T00:47:17.479Z,99477.81
2024-01-05T00:47:39.130Z,99479.19
2024-01-05T00:48:00.983Z,99476.69
2024-01-05T00:48:23.152Z,99479.88
2024-01-05T00:48:45.947Z,99479.97
2024-01-05T00:49:07.851Z,99481.16
2024-01-05T00:49:29.575Z,99477.56
2024-01-05T00:49:51.607Z,99473.72
2024-01-05T00:50:13.381Z,99470.03
2024-01-05T00:50:35.030Z,99474.91
2024-01-05T00:50:57.851Z,99476.47
2024-01-05T00:51:19.556Z,99478.03
2024-01-05T00:51:41.435Z,99452.44
2024-01-05T00:52:03.134Z,99443.63
2024-01-05T00:52:24.785Z,99473.03
2024-01-05T00:52:46.436Z,99463.50
2024-01-05T00:53:09.594Z,99458.91
2024-01-05T00:53:31.223Z,99470.53
2024-01-05T00:53:53.121Z,99473.66
2024-01-05T00:54:15.113Z,99470.78
2024-01-05T00:54:36.854Z,99461.16
2024-01-05T00:54:58.610Z,99455.16
2024-01-05T00:55:21.286Z,99467.19
2024-01-05T00:55:42.938Z,99462.56
2024-01-05T00:56:06.453Z,99468.03
2024-01-05T00:56:28.376Z,99469.53
2024-01-05T00:56:50.064Z,99469.91
2024-01-05T00:57:12.705Z,99456.81
2024-01-05T00:57:34.636Z,99465.63
2024-01-05T00:57:56.321Z,99465.31
2024-01-05T00:58:17.963Z,99465.16
2024-01-05T00:58:39.605Z,99460.69
2024-01-05T00:59:01.277Z,99465.63
2024-01-05T00:59:23.998Z,99456.41
2024-01-05T00:59:46.798Z,99463.03
2024-01-05T01:00:10.556Z,99465.56
2024-01-05T01:00:32.435Z,99460.38
2024-01-05T01:00:54.255Z,99468.41
2024-01-05T01:01:17.371Z,99461.03
2024-01-05T01:01:39.988Z,99462.19
2024-01-05T01:02:01.641Z,99463.91
2024-01-05T01:02:23.311Z,99456.09
2024-01-05T01:02:44.977Z,99438.47
2024-01-05T01:03:06.749Z,99460.47
2024-01-05T01:03:28.518Z,99459.22
2024-01-05T01:03:51.214Z,99447.25
2024-01-05T01:04:13.152Z,99447.25
2024-01-05T01:04:35.044Z,99444.06
2024-01-05T01:04:56.779Z,99452.09
2024-01-05T01:05:18.727Z,99443.19
2024-01-05T01:05:40.445Z,99460.66
2024-01-05T01:21:51.527Z,99443.63
2024-01-05T01:22:13.577Z,99437.91
2024-01-05T01:22:35.247Z,99428.28
2024-01-05T01:22:57.146Z,99442.47
2024-01-05T01:23:22.426Z,99443.94
2024-01-05T01:23:57.433Z,99440.66
2024-01-05T01:24:22.123Z,99432.22
2024-01-05T01:24:54.593Z,99431.41
2024-01-05T01:25:23.871Z,99441.81
2024-01-05T01:25:46.052Z,99438.63
2024-01-05T01:26:09.182Z,99437.59
2024-01-05T01:27:11.225Z,99441.75
2024-01-05T01:27:33.049Z,99435.34
2024-01-05T01:27:54.708Z,99443.59
2024-01-05T01:28:17.371Z,99440.03
2024-01-05T01:28:39.111Z,99430.81
2024-01-05T01:29:00.718Z,99439.94
2024-01-05T01:29:22.383Z,99433.28
2024-01-05T01:29:44.200Z,99442.09
2024-01-05T01:30:09.189Z,99431.22
2024-01-05T01:30:31.919Z,99432.47
2024-01-05T01:30:53.672Z,99431.22
2024-01-05T01:31:15.484Z,99440.50
2024-01-05T01:31:37.209Z,99428.31
2024-01-05T01:31:58.910Z,99440.59
2024-01-05T01:32:20.538Z,99381.78
2024-01-05T01:32:43.352Z,99416.06
2024-01-05T01:33:05.705Z,99426.59
2024-01-05T01:33:27.599Z,99433.88
2024-01-05T01:33:49.393Z,99423.91
2024-01-05T01:34:11.372Z,99430.47
2024-01-05T01:34:34.136Z,99431.72
2024-01-05T01:34:56.381Z,99434.56
2024-01-05T01:35:18.170Z,99428.56
2024-01-05T01:35:39.797Z,99436.41
2024-01-05T01:36:01.589Z,99422.53
2024-01-05T01:36:24.248Z,99428.84
2024-01-05T01:36:46.192Z,99434.53
2024-01-05T01:37:09.359Z,99431.88
2024-01-05T01:37:30.973Z,99415.03
2024-01-05T01:37:52.865Z,99427.16
2024-01-05T01:38:14.631Z,99425.78
2024-01-05T01:38:37.414Z,99429.50
2024-01-05T01:38:59.083Z,99432.16
2024-01-05T01:39:20.766Z,99431.56
2024-01-05T01:39:42.493Z,99431.00
2024-01-05T01:40:05.969Z,99394.06
2024-01-05T01:40:28.885Z,99418.06
2024-01-05T01:40:50.800Z,99418.09
2024-01-05T01:41:12.507Z,99427.22
2024-01-05T01:41:34.153Z,99416.38
2024-01-05T01:41:55.955Z,99418.56
2024-01-05T01:42:17.695Z,99416.44
2024-01-05T01:42:45.607Z,99390.72
2024-01-05T01:43:18.131Z,99407.69
2024-01-05T01:43:48.646Z,99418.22
2024-01-05T01:44:11.222Z,99399.19
2024-01-05T01:44:33.913Z,99413.28
2024-01-05T01:44:55.589Z,99379.66
2024-01-05T01:45:17.390Z,99413.66
2024-01-05T01:45:39.198Z,99410.25
2024-01-05T01:46:02.047Z,99415.88
2024-01-05T01:46:25.510Z,99419.81
2024-01-05T01:46:47.461Z,99418.59
2024-01-05T01:47:09.119Z,99409.09
2024-01-05T01:47:30.929Z,99415.31
2024-01-05T01:47:53.071Z,99414.44
2024-01-05T01:48:22.712Z,99416.78
2024-01-05T01:49:30.115Z,99413.00
2024-01-05T01:49:56.450Z,99421.38
2024-01-05T01:50:19.743Z,99419.75
2024-01-05T01:50:42.662Z,99412.41
2024-01-05T01:51:05.006Z,99413.41
2024-01-05T01:51:32.176Z,99417.66
2024-01-05T01:51:59.706Z,99418.94
2024-01-05T02:19:43.113Z,99387.81
2024-01-05T02:20:06.532Z,99386.03
2024-01-05T02:20:28.142Z,99386.50
2024-01-05T02:20:49.883Z,99384.09
2024-01-05T02:21:14.501Z,99384.63
2024-01-05T02:21:41.558Z,99388.91
2024-01-05T02:22:03.578Z,99387.03
2024-01-05T02:22:28.754Z,99389.56
2024-01-05T02:22:54.976Z,99391.19
2024-01-05T02:23:25.112Z,99392.19
2024-01-05T02:23:47.808Z,99377.19
2024-01-05T02:24:09.663Z,99390.41
2024-01-05T02:24:31.440Z,99388.91
2024-01-05T02:24:53.217Z,99363.59
2024-01-05T02:25:14.832Z,99384.00
2024-01-05T02:25:36.718Z,99392.41
2024-01-05T02:26:00.388Z,99394.91
2024-01-05T02:26:22.382Z,99388.38
2024-01-05T02:26:44.293Z,99391.28
2024-01-05T02:27:06.110Z,99392.38
2024-01-05T02:27:28.060Z,99384.66
2024-01-05T02:27:49.759Z,99374.91
2024-01-05T02:28:12.347Z,99380.75
2024-01-05T02:28:33.990Z,99375.88
2024-01-05T02:28:55.647Z,99360.13
2024-01-05T02:29:22.767Z,99378.72
2024-01-05T02:40:00.034Z,99365.84
2024-01-05T02:40:21.683Z,99360.78
2024-01-05T02:40:43.462Z,99364.06
2024-01-05T02:41:06.942Z,99365.72
2024-01-05T02:41:28.553Z,99361.56
2024-01-05T02:41:51.240Z,99365.34
2024-01-05T02:42:12.888Z,99362.25
2024-01-05T02:42:34.518Z,99361.84
2024-01-05T02:42:56.201Z,99363.16
2024-01-05T02:43:17.856Z,99360.34
2024-01-05T02:43:40.497Z,99363.69
2024-01-05T02:44:02.207Z,99361.81
2024-01-05T02:44:23.926Z,99363.84
2024-01-05T02:44:45.520Z,99361.28
2024-01-05T02:45:07.784Z,99365.41
2024-01-05T02:45:29.501Z,99358.19
2024-01-05T02:45:51.326Z,99353.94
2024-01-05T02:46:13.918Z,99365.22
2024-01-05T02:46:36.357Z,99361.09
2024-01-05T02:46:58.039Z,99354.59
2024-01-05T02:47:19.684Z,99359.66
2024-01-05T02:47:41.399Z,99353.16
2024-01-05T02:48:03.632Z,99361.72
2024-01-05T02:48:26.383Z,99359.41
2024-01-05T02:48:48.258Z,99356.69
2024-01-05T02:49:10.100Z,99355.81
2024-01-05T02:49:32.127Z,99355.63
2024-01-05T02:49:53.898Z,99346.53
2024-01-05T02:50:16.275Z,99366.16
2024-01-05T02:50:38.899Z,99360.88
2024-01-05T02:51:00.583Z,99356.72
2024-01-05T02:51:22.247Z,99350.28
2024-01-05T02:51:44.257Z,99343.88
2024-01-05T02:52:06.075Z,99346.31
2024-01-05T02:52:27.730Z,99345.16
2024-01-05T02:52:50.325Z,99342.44
2024-01-05T02:53:11.956Z,99342.88
2024-01-05T02:53:33.616Z,99342.69
2024-01-05T02:53:55.307Z,99344.47
2024-01-05T02:54:16.976Z,99338.09
2024-01-05T02:54:39.868Z,99343.22
2024-01-05T02:55:02.879Z,99338.78
2024-01-05T02:55:24.513Z,99337.84
2024-01-05T02:55:46.136Z,99331.56
2024-01-05T02:56:07.762Z,99336.53
2024-01-05T02:56:32.145Z,99337.91
2024-01-05T02:56:53.778Z,99339.44
2024-01-05T02:57:15.520Z,99343.03
2024-01-05T02:57:37.626Z,99333.28
2024-01-05T02:58:03.252Z,99339.97
2024-01-05T02:58:25.881Z,99331.00
2024-01-05T02:58:47.520Z,99339.81
2024-01-05T02:59:09.183Z,99332.28
2024-01-05T02:59:30.801Z,99336.94
2024-01-05T02:59:52.691Z,99329.78
2024-01-05T03:00:14.922Z,99333.47
2024-01-05T03:00:37.831Z,99339.31
2024-01-05T03:00:59.600Z,99334.59
2024-01-05T03:01:21.432Z,99337.75
2024-01-05T03:01:43.097Z,99338.19
2024-01-05T03:02:05.058Z,99331.03
2024-01-05T03:02:26.761Z,99335.28
2024-01-05T03:02:49.362Z,99324.19
2024-01-05T03:03:11.148Z,99333.25
2024-01-05T03:03:32.880Z,99328.97
2024-01-05T03:03:54.835Z,99334.63
2024-01-05T03:04:16.807Z,99336.06
2024-01-05T03:04:42.834Z,99341.25
2024-01-05T03:05:05.575Z,99332.56
2024-01-05T03:05:27.572Z,99337.50
2024-01-05T03:05:49.308Z,99329.22
2024-01-05T03:06:10.952Z,99335.78
2024-01-05T03:06:33.701Z,99324.16
2024-01-05T03:06:55.434Z,99336.16
2024-01-05T03:07:17.054Z,99340.75
2024-01-05T03:07:38.849Z,99335.75
2024-01-05T03:08:00.554Z,99336.34
2024-01-05T03:08:22.166Z,99336.56
2024-01-05T03:08:45.346Z,99333.75
2024-01-05T03:09:09.788Z,99304.53
2024-01-05T03:09:31.517Z,99333.16
2024-01-05T03:09:53.156Z,99333.91
2024-01-05T03:10:16.352Z,99335.84
2024-01-05T03:10:37.959Z,99330.31
2024-01-05T03:11:00.563Z,99311.75
2024-01-05T03:12:11.972Z,99331.72
2024-01-05T03:12:34.062Z,99327.72
2024-01-05T03:19:42.690Z,99320.19
2024-01-05T03:21:39.408Z,99320.25
2024-01-05T03:22:01.073Z,99316.13
2024-01-05T03:22:23.292Z,99308.72
2024-01-05T03:22:45.226Z,99315.63
2024-01-05T03:23:06.874Z,99312.06
2024-01-05T03:23:28.494Z,99311.44
2024-01-05T03:23:51.109Z,99308.63
2024-01-05T03:24:12.996Z,99300.66
2024-01-05T03:24:35.632Z,99312.50
2024-01-05T03:24:57.337Z,99313.53
2024-01-05T03:25:20.345Z,99309.81
2024-01-05T03:25:43.179Z,99305.03
2024-01-05T03:26:08.793Z,99310.44
2024-01-05T03:26:30.423Z,99311.59
2024-01-05T03:26:52.203Z,99311.81
2024-01-05T03:27:16.001Z,99307.94
2024-01-05T03:27:37.889Z,99303.31
2024-01-05T03:27:59.623Z,99301.28
2024-01-05T03:28:21.266Z,99305.44
2024-01-05T03:28:42.911Z,99301.16
2024-01-05T03:29:05.496Z,99300.84
2024-01-05T03:29:27.127Z,99260.69
2024-01-05T03:29:48.805Z,99296.06
2024-01-05T03:30:11.131Z,99312.28
2024-01-05T03:30:32.945Z,99286.66
2024-01-05T03:30:54.719Z,99300.97
2024-01-05T03:31:16.546Z,99310.66
2024-01-05T03:31:39.327Z,99307.78
2024-01-05T03:32:00.979Z,99308.09
2024-01-05T03:32:22.654Z,99302.72
2024-01-05T03:32:44.443Z,99306.38
2024-01-05T03:33:06.330Z,99307.78
2024-01-05T03:33:28.402Z,99307.22
2024-01-05T03:33:51.963Z,99308.56
2024-01-05T03:34:14.597Z,99303.31
2024-01-05T03:34:36.731Z,99300.91
2024-01-05T03:34:58.519Z,99300.97
2024-01-05T03:35:20.750Z,99299.59
2024-01-05T03:35:42.604Z,99302.38
2024-01-05T03:36:05.658Z,99295.75
2024-01-05T03:36:27.432Z,99293.28
2024-01-05T03:36:49.154Z,99289.56
2024-01-05T03:37:10.770Z,99297.41
2024-01-05T03:37:32.466Z,99287.66
2024-01-05T03:37:55.119Z,99287.66
2024-01-05T03:38:16.772Z,99299.00
2024-01-05T03:38:38.442Z,99286.50
2024-01-05T03:39:00.961Z,99292.41
2024-01-05T03:39:22.693Z,99281.72
2024-01-05T03:39:44.361Z,99274.41
2024-01-05T03:40:07.730Z,99289.88
2024-01-05T03:40:31.712Z,99278.97
2024-01-05T03:40:53.330Z,99290.50
2024-01-05T03:41:15.107Z,99288.47
2024-01-05T03:41:36.859Z,99293.94
2024-01-05T03:41:58.582Z,99300.38
2024-01-05T03:45:08.250Z,99282.81
2024-01-05T04:03:40.589Z,99281.91
2024-01-05T04:04:02.530Z,99273.97
2024-01-05T04:04:24.363Z,99274.19
2024-01-05T04:04:46.428Z,99274.28
2024-01-05T04:05:10.072Z,99264.44
2024-01-05T04:05:33.180Z,99267.81
2024-01-05T04:05:54.949Z,99266.84
2024-01-05T04:06:20.378Z,99275.13
2024-01-05T04:06:42.943Z,99266.06
2024-01-05T04:07:04.818Z,99273.31
2024-01-05T04:07:27.410Z,99270.38
2024-01-05T04:07:49.037Z,99279.47
2024-01-05T04:08:10.644Z,99272.63
2024-01-05T04:08:32.336Z,99269.81
2024-01-05T04:08:54.184Z,99281.06
2024-01-05T04:09:15.950Z,99277.78
2024-01-05T04:09:39.321Z,99270.44
2024-01-05T04:10:01.000Z,99284.38
2024-01-05T04:10:22.666Z,99276.81
2024-01-05T04:10:44.339Z,99281.59
2024-01-05T04:11:06.134Z,99293.06
2024-01-05T04:11:31.319Z,99287.22
2024-01-05T04:11:53.361Z,99290.16
2024-01-05T04:12:15.145Z,99282.94
2024-01-05T04:12:36.893Z,99285.25
2024-01-05T04:12:59.560Z,99289.00
2024-01-05T04:13:21.142Z,99283.44
2024-01-05T04:13:42.761Z,99283.81
2024-01-05T04:14:04.970Z,99282.97
2024-01-05T04:14:26.671Z,99282.97
2024-01-05T04:14:49.543Z,99282.72
2024-01-05T04:15:12.205Z,99281.53
2024-01-05T04:15:36.912Z,99262.78
2024-01-05T04:15:58.649Z,99281.97
2024-01-05T04:16:20.328Z,99289.00
2024-01-05T04:16:43.102Z,99273.44
2024-01-05T04:17:04.861Z,99276.03
2024-01-05T04:17:26.528Z,99278.75
2024-01-05T04:17:48.734Z,99281.66
2024-01-05T04:18:10.708Z,99279.41
2024-01-05T04:18:32.584Z,99245.59
2024-01-05T04:18:56.779Z,99272.00
2024-01-05T04:19:18.740Z,99275.34
2024-01-05T04:19:40.484Z,99274.19
2024-01-05T04:20:02.300Z,99278.69
2024-01-05T04:20:24.011Z,99273.16
2024-01-05T04:20:46.589Z,99271.59
2024-01-05T04:21:10.567Z,99281.66
2024-01-05T04:21:32.408Z,99270.88
2024-01-05T04:21:54.171Z,99277.53
2024-01-05T04:22:15.915Z,99278.00
2024-01-05T04:22:38.633Z,99264.91
2024-01-05T04:23:01.659Z,99272.47
2024-01-05T04:23:23.241Z,99239.41
2024-01-05T04:23:44.847Z,99255.78
2024-01-05T04:24:06.675Z,99267.84
2024-01-05T04:24:28.347Z,99278.66
2024-01-05T04:24:51.113Z,99268.28
2024-01-05T04:25:12.805Z,99281.16
2024-01-05T04:25:34.452Z,99268.03
2024-01-05T04:25:56.075Z,99270.88
2024-01-05T04:26:17.661Z,99272.81
2024-01-05T04:26:40.511Z,99278.97
2024-01-05T04:27:02.376Z,99275.47
2024-01-05T04:27:24.050Z,99271.50
2024-01-05T04:27:47.028Z,99281.03
2024-01-05T04:28:08.639Z,99266.41
2024-01-05T04:28:30.445Z,99275.25
2024-01-05T04:28:53.152Z,99264.41
2024-01-05T04:29:14.850Z,99270.63
2024-01-05T04:29:36.520Z,99266.63
2024-01-05T04:29:58.192Z,99267.47
2024-01-05T04:30:22.062Z,99272.59
2024-01-05T04:30:45.009Z,99271.59
2024-01-05T04:31:07.987Z,99265.97
2024-01-05T04:31:30.004Z,99275.44
2024-01-05T04:31:52.195Z,99274.41
2024-01-05T04:32:13.826Z,99280.81
2024-01-05T04:32:36.962Z,99277.59
2024-01-05T04:32:58.916Z,99284.03
2024-01-05T04:33:20.992Z,99276.06
2024-01-05T04:33:42.893Z,99280.84
2024-01-05T04:34:06.248Z,99272.56
2024-01-05T04:34:29.249Z,99272.47
2024-01-05T04:34:50.939Z,99281.63
2024-01-05T04:35:12.581Z,99281.88
2024-01-05T04:35:34.383Z,99254.38
2024-01-05T04:35:56.018Z,99277.84
2024-01-05T04:36:19.714Z,99248.06
2024-01-05T04:36:41.476Z,99277.44
2024-01-05T04:37:03.327Z,99279.66
2024-01-05T04:37:25.081Z,99261.19
2024-01-05T04:37:46.788Z,99276.91
2024-01-05T04:38:08.464Z,99266.84
2024-01-05T04:38:32.068Z,99266.75
2024-01-05T04:38:53.836Z,99252.28
2024-01-05T04:39:15.583Z,99270.06
2024-01-05T04:39:37.237Z,99259.97
2024-01-05T04:39:59.833Z,99269.91
2024-01-05T04:40:21.587Z,99266.03
2024-01-05T04:40:43.217Z,99262.03
2024-01-05T04:41:05.054Z,99264.25
2024-01-05T04:41:26.956Z,99265.72
2024-01-05T04:41:49.667Z,99263.06
2024-01-05T04:42:11.796Z,99263.72
2024-01-05T04:42:33.499Z,99265.19
2024-01-05T04:42:55.196Z,99267.75
2024-01-05T04:43:17.142Z,99233.50
2024-01-05T04:43:38.800Z,99261.53
2024-01-05T04:44:01.358Z,99261.00
2024-01-05T04:44:22.979Z,99266.22
2024-01-05T04:55:46.906Z,99244.03
2024-01-05T04:56:08.580Z,99241.72
2024-01-05T04:56:30.400Z,99247.63
2024-01-05T04:56:52.167Z,99240.59
2024-01-05T04:57:14.533Z,99244.22
2024-01-05T04:57:37.867Z,99242.84
2024-01-05T04:57:59.640Z,99249.44
2024-01-05T04:58:21.472Z,99242.00
2024-01-05T04:58:43.066Z,99236.56
2024-01-05T04:59:04.680Z,99248.66
2024-01-05T04:59:27.271Z,99248.25
2024-01-05T04:59:49.521Z,99251.50
2024-01-05T05:00:11.882Z,99250.47
2024-01-05T05:00:33.673Z,99249.63
2024-01-05T05:00:55.713Z,99253.28
2024-01-05T05:01:17.517Z,99254.84
2024-01-05T05:01:40.159Z,99255.53
2024-01-05T05:02:01.788Z,99245.06
2024-01-05T05:02:24.158Z,99257.06
2024-01-05T05:02:45.837Z,99249.50
2024-01-05T05:03:07.492Z,99242.84
2024-01-05T05:03:32.155Z,99253.09
2024-01-05T05:03:54.032Z,99255.34
2024-01-05T05:04:18.649Z,99251.75
2024-01-05T05:04:40.251Z,99249.59
2024-01-05T05:05:01.899Z,99253.88
2024-01-05T05:05:23.761Z,99239.16
2024-01-05T05:05:47.126Z,99249.09
2024-01-05T05:06:09.030Z,99246.84
2024-01-05T05:06:30.666Z,99243.69
2024-01-05T05:06:52.304Z,99248.31
2024-01-05T05:07:13.943Z,99242.34
2024-01-05T05:07:35.554Z,99241.88
2024-01-05T05:07:58.138Z,99248.66
2024-01-05T05:08:19.749Z,99245.47
2024-01-05T05:08:41.364Z,99243.53
2024-01-05T05:09:03.939Z,99251.31
2024-01-05T05:09:25.605Z,99254.63
2024-01-05T05:09:48.257Z,99247.53
2024-01-05T05:10:09.971Z,99251.56
2024-01-05T05:10:31.576Z,99243.22
2024-01-05T05:10:54.768Z,99245.63
2024-01-05T05:11:16.406Z,99245.38
2024-01-05T05:11:39.782Z,99241.59
2024-01-05T05:12:02.434Z,99247.69
2024-01-05T05:12:24.362Z,99252.66
2024-01-05T05:12:45.998Z,99241.00
2024-01-05T05:13:07.640Z,99242.84
2024-01-05T05:13:29.344Z,99251.56
2024-01-05T05:13:50.959Z,99239.25
2024-01-05T05:14:13.763Z,99247.72
2024-01-05T05:14:35.808Z,99235.38
2024-01-05T05:14:57.457Z,99244.66
2024-01-05T05:15:19.280Z,99247.97
2024-01-05T05:15:41.103Z,99234.97
2024-01-05T05:16:03.931Z,99238.22
2024-01-05T05:16:25.588Z,99246.78
2024-01-05T05:16:47.199Z,99256.94
2024-01-05T05:17:09.149Z,99243.19
2024-01-05T05:17:30.845Z,99244.38
2024-01-05T05:17:55.023Z,99244.06
2024-01-05T05:18:18.005Z,99244.53
2024-01-05T05:18:39.853Z,99243.88
2024-01-05T05:19:01.641Z,99249.69
2024-01-05T05:19:23.513Z,99241.13
2024-01-05T05:19:45.283Z,99242.47
2024-01-05T05:20:07.764Z,99238.75
2024-01-05T05:20:30.507Z,99247.31
2024-01-05T05:20:52.282Z,99236.16
2024-01-05T05:21:14.265Z,99242.16
2024-01-05T05:21:35.988Z,99226.28
2024-01-05T05:21:57.715Z,99235.56
2024-01-05T05:22:19.286Z,99234.69
2024-01-05T05:22:41.916Z,99233.44
2024-01-05T05:23:03.831Z,99230.00
2024-01-05T05:23:25.443Z,99233.00
2024-01-05T05:23:47.078Z,99228.59
2024-01-05T05:24:08.686Z,99240.69
2024-01-05T05:24:30.436Z,99238.28
2024-01-05T05:24:53.154Z,99222.28
2024-01-05T05:25:14.761Z,99235.38
2024-01-05T05:25:36.403Z,99236.63
2024-01-05T05:25:59.350Z,99229.38
2024-01-05T05:36:45.087Z,99216.69
2024-01-05T05:37:06.713Z,99217.31
2024-01-05T05:37:28.331Z,99215.09
2024-01-05T05:37:49.938Z,99217.06
2024-01-05T05:38:11.715Z,99208.84
2024-01-05T05:38:33.374Z,99219.28
2024-01-05T05:38:55.961Z,99224.81
2024-01-05T05:39:17.623Z,99215.91
2024-01-05T05:39:39.314Z,99222.59
2024-01-05T05:40:01.020Z,99220.81
2024-01-05T05:40:22.699Z,99216.16
2024-01-05T05:40:45.750Z,99218.34
2024-01-05T05:41:08.828Z,99219.56
2024-01-05T05:41:30.437Z,99221.06
2024-01-05T05:41:52.052Z,99218.63
2024-01-05T05:42:13.852Z,99213.22
2024-01-05T05:42:36.629Z,99215.53
2024-01-05T05:42:58.280Z,99225.06
2024-01-05T05:43:19.869Z,99224.59
2024-01-05T05:43:41.481Z,99216.47
2024-01-05T05:44:04.549Z,99225.31
2024-01-05T05:44:26.162Z,99214.50
2024-01-05T05:44:48.800Z,99224.72
2024-01-05T05:45:11.191Z,99232.84
2024-01-05T05:45:32.942Z,99224.44
2024-01-05T05:45:54.572Z,99225.09
2024-01-05T05:46:16.385Z,99228.28
2024-01-05T05:46:38.974Z,99221.50
2024-01-05T05:47:00.627Z,99229.41
2024-01-05T05:47:22.301Z,99226.44
2024-01-05T05:47:43.991Z,99229.78
2024-01-05T05:48:06.738Z,99212.69
2024-01-05T05:48:28.646Z,99224.50
2024-01-05T05:48:50.491Z,99228.38
2024-01-05T05:49:13.304Z,99220.38
2024-01-05T05:49:35.185Z,99215.28
2024-01-05T05:49:57.068Z,99220.78
2024-01-05T05:50:18.682Z,99222.06
2024-01-05T05:50:40.276Z,99220.00
2024-01-05T05:51:02.930Z,99223.47
2024-01-05T05:51:24.604Z,99219.31
2024-01-05T05:51:46.829Z,99237.00
2024-01-05T05:52:08.720Z,99227.66
2024-01-05T05:52:31.093Z,99232.31
2024-01-05T05:52:54.917Z,99230.00
2024-01-05T05:53:16.842Z,99224.44
2024-01-05T05:53:38.488Z,99218.63
2024-01-05T05:54:00.200Z,99224.44
2024-01-05T05:54:21.915Z,99224.34
2024-01-05T05:54:44.317Z,99218.19
2024-01-05T05:55:08.078Z,99221.34
2024-01-05T05:55:29.845Z,99222.22
2024-01-05T05:55:51.483Z,99220.22
2024-01-05T05:56:14.729Z,99231.44
2024-01-05T05:56:36.355Z,99221.25
2024-01-05T05:56:58.134Z,99224.00
2024-01-05T05:57:20.797Z,99221.81
2024-01-05T05:57:42.644Z,99227.25
2024-01-05T05:58:06.210Z,99227.31
2024-01-05T05:58:28.126Z,99219.84
2024-01-05T05:58:50.547Z,99226.88
2024-01-05T05:59:12.287Z,99227.81
2024-01-05T05:59:34.880Z,99221.97
2024-01-05T05:59:56.631Z,99221.78
2024-01-05T06:00:18.939Z,99224.31
2024-01-05T06:00:40.783Z,99220.09
2024-01-05T06:01:02.664Z,99233.03
2024-01-05T06:01:25.817Z,99214.91
2024-01-05T06:01:47.483Z,99222.06
2024-01-05T06:02:09.139Z,99230.09
2024-01-05T06:02:30.785Z,99219.56
2024-01-05T06:02:52.575Z,99225.38
2024-01-05T06:03:14.727Z,99227.03
2024-01-05T06:03:37.585Z,99224.13
2024-01-05T06:03:59.397Z,99226.59
2024-01-05T06:04:21.239Z,99218.28
2024-01-05T06:04:42.939Z,99220.97
2024-01-05T06:05:05.851Z,99219.94
2024-01-05T06:05:28.496Z,99219.31
2024-01-05T06:05:50.153Z,99221.84
2024-01-05T06:06:19.862Z,99225.34
2024-01-05T06:06:41.931Z,99217.81
2024-01-05T06:07:03.920Z,99223.25
2024-01-05T06:07:26.701Z,99224.34
2024-01-05T06:07:48.395Z,99220.03
2024-01-05T06:08:10.113Z,99220.75
2024-01-05T06:08:31.749Z,99220.31
2024-01-05T06:08:53.639Z,99218.69
2024-01-05T06:09:16.166Z,99220.91
2024-01-05T06:09:39.164Z,99217.94
2024-01-05T06:10:00.869Z,99213.81
2024-01-05T06:10:23.316Z,99215.38
2024-01-05T06:10:44.933Z,99202.25
2024-01-05T06:11:06.657Z,99212.00
2024-01-05T06:11:29.656Z,99216.38
2024-01-05T06:11:52.217Z,99216.03
2024-01-05T06:12:14.073Z,99213.38
2024-01-05T06:12:35.852Z,99217.38
2024-01-05T06:12:57.590Z,99213.09
2024-01-05T06:13:19.465Z,99217.38
2024-01-05T06:13:42.154Z,99214.75
2024-01-05T06:14:05.392Z,99213.06
2024-01-05T06:14:27.052Z,99216.03
2024-01-05T06:14:48.709Z,99219.31
2024-01-05T06:15:10.735Z,99218.78
2024-01-05T06:15:33.416Z,99213.53
2024-01-05T06:15:55.085Z,99212.13
2024-01-05T06:16:16.716Z,99215.94
2024-01-05T06:16:38.395Z,99212.00
2024-01-05T06:17:00.034Z,99204.53
2024-01-05T06:17:22.693Z,99206.88
2024-01-05T06:17:44.382Z,99209.81
2024-01-05T06:18:06.689Z,99209.88